Time;durP1;ratioP1;P1;durP2;ratioP2;P2;SDS_P1;SDS_P2;PMS_P1;PMS_P2;Temp;Humidity;BMP_temperature;BMP_pressure;BME280_temperature;BME280_humidity;BME280_pressure;Samples;Min_cycle;Max_cycle;Signal;HPM_P1;HPM_P2
2022/06/04 18:04:39;;;;;;;4.25;2.75;;;26.60;84.30;;;;;;6983577;27;20139;-61
2022/06/04 18:13:15;;;;;;;4.65;2.67;;;27.00;81.00;;;;;;7093346;27;20714;-79
2022/06/04 18:16:38;;;;;;;4.07;2.30;;;28.40;75.70;;;;;;7028531;28;20504;-79
2022/06/04 18:20:01;;;;;;;5.53;2.83;;;29.10;73.30;;;;;;7027314;28;20079;-79
2022/06/04 18:23:23;;;;;;;4.85;2.50;;;29.30;70.90;;;;;;6926764;28;20056;-79
2022/06/04 18:26:46;;;;;;;4.18;2.53;;;29.50;70.70;;;;;;6930156;28;20084;-77
2022/06/04 18:30:11;;;;;;;4.18;2.53;;;29.70;70.30;;;;;;6942178;28;20111;-80
2022/06/04 18:33:33;;;;;;;5.22;2.53;;;29.60;69.20;;;;;;6949651;28;20088;-78
2022/06/04 18:36:55;;;;;;;;;;;29.10;70.30;;;;;;6942831;28;20045;-79
2022/06/04 18:40:19;;;;;;;4.78;2.42;;;29.20;69.90;;;;;;6958280;28;19932;-79
2022/06/04 18:54:44;;;;;;;21.77;12.63;;;29.30;71.60;;;;;;6957044;28;20049;-79
2022/06/04 18:58:06;;;;;;;31.73;21.30;;;29.20;71.60;;;;;;6961427;28;20157;-77
2022/06/04 19:01:29;;;;;;;12.77;8.43;;;29.00;72.10;;;;;;6945599;28;20384;-78
2022/06/04 19:04:52;;;;;;;8.68;5.68;;;28.80;72.30;;;;;;6959408;28;20096;-78
2022/06/04 19:08:17;;;;;;;5.05;2.70;;;28.70;72.90;;;;;;6960925;28;20138;-78
2022/06/04 19:15:19;;;;;;;4.75;2.70;;;28.20;74.60;;;;;;6959140;28;20450;-77
2022/06/04 19:18:45;;;;;;;4.47;2.65;;;28.00;74.90;;;;;;6929469;28;20462;-79
2022/06/04 19:25:48;;;;;;;6.53;2.97;;;27.80;76.60;;;;;;6941100;28;20060;-78
2022/06/04 19:29:13;;;;;;;4.55;2.80;;;27.60;76.80;;;;;;6941652;28;20053;-79
2022/06/04 19:32:37;;;;;;;4.20;2.67;;;27.30;77.40;;;;;;6942305;28;20103;-80
2022/06/04 19:35:59;;;;;;;5.28;2.70;;;27.20;77.30;;;;;;6939876;28;20089;-77
2022/06/04 19:39:24;;;;;;;4.47;2.83;;;27.10;77.80;;;;;;6942565;28;20151;-78
2022/06/04 19:42:47;;;;;;;5.00;2.75;;;26.90;78.10;;;;;;6937256;28;20052;-78
2022/06/04 19:46:09;;;;;;;5.80;3.13;;;26.80;78.60;;;;;;6950699;28;20099;-77
2022/06/04 19:49:34;;;;;;;4.35;2.53;;;26.60;79.60;;;;;;6939753;28;20113;-78
2022/06/04 19:56:38;;;;;;;5.32;2.78;;;26.40;80.70;;;;;;6919281;28;20050;-79
2022/06/04 20:00:01;;;;;;;6.18;2.67;;;26.20;80.90;;;;;;6937101;28;20081;-79
2022/06/04 20:03:24;;;;;;;3.80;2.50;;;26.00;82.10;;;;;;6919828;28;20112;-78
2022/06/04 20:06:46;;;;;;;4.13;2.80;;;25.90;83.20;;;;;;6937001;28;20440;-78
2022/06/04 20:10:11;;;;;;;5.38;3.10;;;25.90;83.30;;;;;;6912878;28;20053;-79
2022/06/04 20:13:34;;;;;;;4.88;2.88;;;25.80;83.80;;;;;;6937304;28;20053;-80
2022/06/04 20:16:56;;;;;;;5.05;3.28;;;25.70;84.30;;;;;;6939640;28;20045;-78
2022/06/04 20:20:21;;;;;;;5.68;3.08;;;25.50;84.90;;;;;;6939615;28;20084;-79
2022/06/04 20:23:43;;;;;;;5.70;3.40;;;25.40;85.80;;;;;;6936980;28;20072;-79
2022/06/04 20:27:08;;;;;;;;;;;25.30;85.70;;;;;;6939193;28;20056;-79
2022/06/04 20:30:32;;;;;;;4.70;3.10;;;25.10;86.10;;;;;;6935933;28;19928;-77
2022/06/04 20:33:55;;;;;;;4.75;3.00;;;25.00;86.20;;;;;;6941065;28;20403;-79
2022/06/04 20:37:18;;;;;;;5.97;3.67;;;24.90;86.80;;;;;;6942183;28;20392;-79
2022/06/04 20:40:40;;;;;;;5.10;3.47;;;24.90;87.20;;;;;;6910424;28;20627;-80
2022/06/04 20:44:03;;;;;;;4.32;2.97;;;24.80;87.40;;;;;;6943917;28;20045;-78
2022/06/04 20:47:27;;;;;;;4.65;3.30;;;24.70;87.60;;;;;;6941970;28;20072;-80
2022/06/04 20:50:49;;;;;;;5.68;3.58;;;24.60;88.10;;;;;;6942383;28;20110;-79
2022/06/04 20:54:11;;;;;;;5.75;3.30;;;24.40;89.00;;;;;;6943237;28;20061;-79
2022/06/04 20:57:34;;;;;;;6.55;3.53;;;24.10;90.00;;;;;;6941820;28;20049;-81
2022/06/04 21:00:55;;;;;;;;;;;24.10;90.40;;;;;;6943119;28;20055;-76
2022/06/04 21:04:19;;;;;;;5.97;3.50;;;24.00;90.60;;;;;;6942818;28;20029;-78
2022/06/04 21:07:42;;;;;;;6.65;3.65;;;23.90;90.50;;;;;;6941053;28;20487;-79
2022/06/04 21:11:04;;;;;;;8.27;4.65;;;23.90;90.90;;;;;;6941417;28;20049;-80
2022/06/04 21:14:26;;;;;;;6.63;4.20;;;23.90;90.90;;;;;;6941964;28;20041;-80
2022/06/04 21:17:48;;;;;;;6.93;4.03;;;23.80;90.90;;;;;;6943170;28;20589;-79
2022/06/04 21:21:12;;;;;;;30.25;18.10;;;23.80;91.10;;;;;;6934815;28;20085;-79
2022/06/04 21:24:34;;;;;;;15.68;9.88;;;23.60;91.50;;;;;;6930315;28;20080;-79
2022/06/04 21:27:57;;;;;;;19.10;12.75;;;23.50;91.70;;;;;;6939736;28;20053;-81
2022/06/04 21:31:22;;;;;;;8.80;5.22;;;23.50;91.90;;;;;;6940872;28;20395;-79
2022/06/04 21:38:25;;;;;;;6.40;4.35;;;23.30;92.20;;;;;;6940851;28;20057;-79
2022/06/04 21:41:48;;;;;;;7.97;4.43;;;23.20;92.60;;;;;;6941328;28;20090;-81
2022/06/04 21:45:13;;;;;;;6.72;4.47;;;23.20;92.50;;;;;;6940126;28;20052;-79
2022/06/04 21:48:35;;;;;;;6.63;4.78;;;23.00;92.90;;;;;;6942900;28;20045;-78
2022/06/04 21:51:57;;;;;;;7.88;4.75;;;23.10;93.00;;;;;;6946670;28;20041;-78
2022/06/04 21:55:21;;;;;;;6.97;4.22;;;23.10;93.00;;;;;;6948977;28;20049;-79
2022/06/04 21:58:43;;;;;;;6.07;4.40;;;23.00;93.30;;;;;;6945221;28;20403;-79
2022/06/04 22:02:05;;;;;;;6.55;3.78;;;22.90;93.40;;;;;;6941848;28;20041;-79
2022/06/04 22:05:28;;;;;;;6.00;3.92;;;22.80;93.80;;;;;;6940896;28;20095;-78
2022/06/04 22:08:51;;;;;;;6.88;3.80;;;22.80;93.90;;;;;;6944425;28;20046;-79
2022/06/04 22:12:15;;;;;;;6.65;4.18;;;22.70;94.00;;;;;;6944639;28;20053;-79
2022/06/04 22:15:38;;;;;;;6.70;4.28;;;22.50;94.50;;;;;;6941315;28;20049;-79
2022/06/04 22:19:00;;;;;;;6.15;4.65;;;22.40;94.50;;;;;;6940371;28;20045;-79
2022/06/04 22:22:22;;;;;;;7.15;5.22;;;22.30;94.80;;;;;;6940154;28;20187;-79
2022/06/04 22:25:45;;;;;;;6.03;4.75;;;22.30;94.80;;;;;;6940752;28;20495;-79
2022/06/04 22:29:08;;;;;;;8.13;5.03;;;22.20;95.00;;;;;;6940869;28;20052;-82
2022/06/04 22:32:31;;;;;;;6.80;5.03;;;22.10;95.10;;;;;;6937738;28;20084;-79
2022/06/04 22:35:53;;;;;;;;;;;21.70;95.40;;;;;;6940916;28;20053;-78
2022/06/04 22:39:15;;;;;;;8.40;4.85;;;21.50;96.30;;;;;;6939017;28;19925;-79
2022/06/04 22:42:37;;;;;;;15.80;9.38;;;21.60;96.50;;;;;;6940134;28;20054;-80
2022/06/04 22:46:01;;;;;;;17.17;9.88;;;21.70;96.50;;;;;;6940774;28;20238;-79
2022/06/04 22:49:23;;;;;;;8.60;5.95;;;21.80;96.50;;;;;;6939441;28;20402;-79
2022/06/04 22:52:45;;;;;;;6.95;5.00;;;21.80;96.70;;;;;;6940364;28;20087;-79
2022/06/04 22:56:08;;;;;;;7.13;5.10;;;21.80;97.00;;;;;;6941235;28;20049;-79
2022/06/04 22:59:32;;;;;;;7.53;5.10;;;21.70;97.00;;;;;;6943198;28;20514;-79
2022/06/04 23:02:55;;;;;;;8.55;5.40;;;21.70;97.20;;;;;;6944861;28;20088;-79
2022/06/04 23:06:17;;;;;;;8.02;5.00;;;21.60;97.40;;;;;;6945052;28;20056;-79
2022/06/04 23:20:45;;;;;;;6.80;5.57;;;21.50;98.10;;;;;;6944731;28;20081;-79
2022/06/04 23:24:07;;;;;;;7.55;5.28;;;21.60;98.10;;;;;;6945396;28;20281;-79
2022/06/04 23:27:29;;;;;;;8.27;5.38;;;21.40;98.30;;;;;;6944004;28;20096;-80
2022/06/04 23:30:51;;;;;;;7.20;5.18;;;21.40;98.40;;;;;;6944343;28;20076;-78
2022/06/04 23:34:13;;;;;;;7.65;5.80;;;21.50;98.40;;;;;;6944046;28;20049;-77
2022/06/04 23:37:38;;;;;;;6.53;5.22;;;21.40;98.60;;;;;;6944286;28;20085;-81
2022/06/04 23:41:01;;;;;;;8.88;5.75;;;21.40;98.80;;;;;;6944288;28;20045;-79
2022/06/04 23:44:24;;;;;;;7.70;5.20;;;21.30;98.80;;;;;;6943586;28;20056;-79
2022/06/04 23:47:46;;;;;;;8.10;5.13;;;21.30;99.00;;;;;;6945245;28;20049;-76
2022/06/04 23:51:11;;;;;;;7.45;5.30;;;21.30;98.80;;;;;;6943295;28;20053;-79
2022/06/04 23:54:35;;;;;;;24.75;15.70;;;21.40;98.70;;;;;;6943861;28;20076;-78
2022/06/04 23:58:00;;;;;;;14.57;9.00;;;21.40;98.50;;;;;;6944775;28;20099;-78
